Time;durP1;ratioP1;P1;durP2;ratioP2;P2;SDS_P1;SDS_P2;PMS_P1;PMS_P2;Temp;Humidity;BMP_temperature;BMP_pressure;BME280_temperature;BME280_humidity;BME280_pressure;Samples;Min_cycle;Max_cycle;Signal;HPM_P1;HPM_P2
2022/09/23 00:01:09;;;;;;;3.65;3.35;;;;;;;11.43;81.90;99158.07;1613885;87;21003;-68
2022/09/23 00:03:44;;;;;;;3.92;3.62;;;;;;;11.42;81.74;99156.44;1581837;89;21043;-68
2022/09/23 00:06:17;;;;;;;4.03;3.72;;;;;;;11.39;81.70;99156.30;1589614;89;21172;-68
2022/09/23 00:08:44;;;;;;;3.92;3.33;;;;;;;11.36;81.67;99149.17;1578102;89;21069;-68
2022/09/23 00:11:14;;;;;;;3.65;3.35;;;;;;;11.33;81.66;99153.52;1608371;87;20952;-68
2022/09/23 00:13:43;;;;;;;3.30;3.00;;;;;;;11.30;81.72;99146.73;1620126;87;21077;-68
2022/09/23 00:16:19;;;;;;;3.52;3.22;;;;;;;11.30;81.86;99145.39;1623993;87;21023;-68
2022/09/23 00:18:48;;;;;;;2.98;2.70;;;;;;;11.31;81.89;99140.91;1584052;89;21192;-68
2022/09/23 00:21:14;;;;;;;3.65;3.27;;;;;;;11.30;81.82;99133.91;1609349;87;21598;-68
2022/09/23 00:23:42;;;;;;;3.20;2.90;;;;;;;11.28;81.75;99136.77;1609121;89;21057;-68
2022/09/23 00:26:12;;;;;;;3.37;3.08;;;;;;;11.28;81.67;99138.59;1613881;87;21501;-68
2022/09/23 00:28:39;;;;;;;2.98;2.70;;;;;;;11.26;81.69;99139.30;1587196;89;21102;-67
2022/09/23 00:31:12;;;;;;;3.22;3.02;;;;;;;11.25;81.77;99131.80;1579104;89;21292;-68
2022/09/23 00:33:39;;;;;;;11.68;3.75;;;;;;;11.24;81.81;99134.13;1589469;89;21555;-67
2022/09/23 00:36:09;;;;;;;3.87;3.58;;;;;;;11.24;81.90;99132.00;1587957;89;21013;-67
2022/09/23 00:38:37;;;;;;;3.70;3.40;;;;;;;11.25;81.82;99128.31;1590649;89;21584;-68
2022/09/23 00:41:05;;;;;;;3.50;3.25;;;;;;;11.27;81.77;99137.77;1581964;89;21052;-68
2022/09/23 00:43:49;;;;;;;4.50;4.10;;;;;;;11.28;81.74;99138.10;1591074;89;21567;-67
2022/09/23 00:46:29;;;;;;;4.03;3.70;;;;;;;11.29;81.71;99141.59;1576486;89;20938;-68
2022/09/23 00:49:28;;;;;;;4.70;4.30;;;;;;;11.27;81.71;99142.26;1587769;89;21125;-68
2022/09/23 00:51:58;;;;;;;4.00;3.70;;;;;;;11.28;81.62;99141.27;1590794;89;20975;-68
2022/09/23 00:54:26;;;;;;;4.28;3.87;;;;;;;11.25;81.74;99146.45;1572703;90;21087;-68
2022/09/23 00:56:54;;;;;;;4.42;4.10;;;;;;;11.25;81.83;99145.62;1574692;90;21201;-68
2022/09/23 00:59:20;;;;;;;4.00;3.52;;;;;;;11.26;81.77;99146.78;1601637;87;21109;-68
2022/09/23 01:01:48;;;;;;;3.98;3.58;;;;;;;11.29;81.64;99153.58;1604564;87;21001;-68
2022/09/23 01:04:15;;;;;;;4.40;4.00;;;;;;;11.28;81.58;99142.09;1592577;89;21530;-67
2022/09/23 01:06:43;;;;;;;4.20;3.87;;;;;;;11.29;81.46;99139.73;1563964;90;21040;-67
2022/09/23 01:09:10;;;;;;;4.37;4.08;;;;;;;11.27;81.35;99142.26;1605238;87;22202;-68
2022/09/23 01:12:05;;;;;;;3.75;3.45;;;;;;;11.22;81.25;99138.82;1613925;87;21608;-68
2022/09/23 01:15:05;;;;;;;3.83;3.52;;;;;;;11.22;81.19;99144.64;1605411;87;20996;-68
2022/09/23 01:17:50;;;;;;;3.65;3.35;;;;;;;11.18;81.10;99140.21;1607368;87;21078;-68
2022/09/23 01:20:40;;;;;;;3.90;3.60;;;;;;;11.13;81.13;99141.27;1619877;87;21062;-68
2022/09/23 01:23:48;;;;;;;3.00;2.80;;;;;;;11.11;81.10;99145.42;1602581;87;21856;-68
2022/09/23 01:26:46;;;;;;;3.15;2.95;;;;;;;11.09;81.03;99140.79;1608870;89;21002;-68
2022/09/23 01:29:40;;;;;;;3.55;3.25;;;;;;;11.02;80.96;99139.87;1573872;88;21524;-68
2022/09/23 01:32:37;;;;;;;3.90;3.60;;;;;;;10.97;80.98;99134.27;1605556;87;20968;-68
2022/09/23 01:35:22;;;;;;;3.50;3.30;;;;;;;10.98;81.04;99135.06;1591293;88;26740;-68
2022/09/23 01:38:12;;;;;;;4.37;3.90;;;;;;;10.97;80.99;99132.09;1576898;88;21185;-67
2022/09/23 01:41:03;;;;;;;3.72;3.42;;;;;;;10.91;81.18;99134.97;1584114;88;20967;-68
2022/09/23 01:43:51;;;;;;;3.40;3.20;;;;;;;10.91;81.19;99134.14;1554731;88;21045;-68
2022/09/23 01:46:26;;;;;;;3.42;3.08;;;;;;;10.92;81.16;99135.81;1602071;87;21495;-68
2022/09/23 01:49:04;;;;;;;3.52;3.30;;;;;;;10.92;81.16;99139.27;1607291;87;21030;-68
2022/09/23 01:51:35;;;;;;;3.02;2.72;;;;;;;10.95;81.17;99145.57;1603560;87;21198;-68
2022/09/23 01:54:24;;;;;;;4.17;3.00;;;;;;;10.97;81.08;99140.92;1600407;87;21597;-68
2022/09/23 01:57:14;;;;;;;3.37;3.10;;;;;;;10.99;80.93;99146.05;1604773;87;21047;-69
2022/09/23 01:59:46;;;;;;;3.35;3.02;;;;;;;10.99;80.91;99152.70;1580041;87;20965;-69
2022/09/23 02:02:20;;;;;;;2.95;2.75;;;;;;;10.97;80.86;99148.90;1599035;87;21001;-69
2022/09/23 02:04:53;;;;;;;2.55;2.35;;;;;;;10.98;80.84;99145.71;1572745;89;22386;-69
2022/09/23 02:07:24;;;;;;;4.55;3.17;;;;;;;11.00;80.81;99145.05;1592615;88;21179;-69
2022/09/23 02:09:59;;;;;;;2.05;1.95;;;;;;;11.00;80.81;99138.40;1595659;88;21001;-68
2022/09/23 02:12:27;;;;;;;2.50;2.30;;;;;;;10.97;80.74;99138.75;1576907;88;20963;-68
2022/09/23 02:15:01;;;;;;;3.65;2.62;;;;;;;10.95;80.75;99137.58;1585962;88;20932;-68
2022/09/23 02:17:39;;;;;;;2.80;2.60;;;;;;;10.94;80.63;99137.28;1620028;87;21287;-69
2022/09/23 02:20:06;;;;;;;2.85;2.40;;;;;;;10.92;80.61;99141.94;1590018;88;21029;-68
2022/09/23 02:22:49;;;;;;;2.50;2.30;;;;;;;10.93;80.63;99142.77;1590749;88;21033;-68
2022/09/23 02:25:16;;;;;;;2.90;2.70;;;;;;;10.93;80.56;99142.27;1606367;87;21467;-69
2022/09/23 02:27:54;;;;;;;2.87;2.67;;;;;;;10.95;80.61;99147.42;1604046;88;21073;-69
2022/09/23 02:30:26;;;;;;;2.60;2.42;;;;;;;10.95;80.62;99140.24;1657527;86;21362;-69
2022/09/23 02:33:10;;;;;;;3.27;2.62;;;;;;;10.97;80.51;99146.73;1628550;86;21047;-69
2022/09/23 02:35:48;;;;;;;3.27;2.67;;;;;;;10.98;80.40;99151.03;1632465;86;21061;-69
2022/09/23 02:38:35;;;;;;;2.50;2.30;;;;;;;10.98;80.28;99147.04;1612649;87;21021;-67
2022/09/23 02:41:28;;;;;;;3.25;2.47;;;;;;;10.97;80.15;99144.91;1633464;86;21536;-67
2022/09/23 02:44:08;;;;;;;3.10;2.87;;;;;;;10.92;80.17;99146.45;1618831;86;21112;-68
2022/09/23 02:46:35;;;;;;;3.15;2.52;;;;;;;10.89;80.26;99139.66;1629382;86;21493;-69
2022/09/23 02:49:08;;;;;;;2.25;2.10;;;;;;;10.90;80.27;99144.45;1666532;86;21532;-69
2022/09/23 02:51:37;;;;;;;2.35;2.25;;;;;;;;;;1657372;86;20973;-69
2022/09/23 02:54:06;;;;;;;2.70;2.50;;;;;;;10.93;80.30;99148.92;1650814;86;21036;-69
2022/09/23 02:56:33;;;;;;;2.87;2.67;;;;;;;10.94;80.24;99145.27;1616069;87;21170;-69
2022/09/23 02:59:00;;;;;;;2.30;2.12;;;;;;;10.97;80.17;99144.08;1634985;86;21442;-69
2022/09/23 03:01:37;;;;;;;3.45;2.50;;;;;;;10.98;80.06;99147.04;1623226;86;21544;-69
2022/09/23 03:04:20;;;;;;;2.47;2.27;;;;;;;10.98;79.92;99147.04;1651200;86;20966;-68
2022/09/23 03:07:24;;;;;;;2.02;1.92;;;;;;;10.97;79.80;99146.73;1636651;86;20914;-68
2022/09/23 03:10:15;;;;;;;2.30;2.10;;;;;;;10.95;79.76;99146.09;1614471;87;21303;-68
2022/09/23 03:12:51;;;;;;;2.50;2.30;;;;;;;10.96;79.74;99144.58;1610431;87;21001;-68
2022/09/23 03:15:46;;;;;;;3.85;2.62;;;;;;;10.94;79.62;99146.59;1636515;86;21069;-69
2022/09/23 03:18:36;;;;;;;2.35;2.15;;;;;;;10.95;79.61;99152.75;1628838;86;21506;-68
2022/09/23 03:21:14;;;;;;;2.60;2.40;;;;;;;10.93;79.60;99151.58;1655878;86;20949;-68
2022/09/23 03:23:40;;;;;;;3.65;3.35;;;;;;;10.93;79.67;99150.25;1626960;86;21267;-68
2022/09/23 03:26:15;;;;;;;5.80;5.20;;;;;;;10.93;79.66;99145.42;1628779;86;20971;-68
2022/09/23 03:28:42;;;;;;;3.92;3.50;;;;;;;10.91;79.66;99142.95;1628288;85;21042;-68
2022/09/23 03:31:11;;;;;;;3.02;2.83;;;;;;;10.92;79.66;99143.27;1641219;86;20981;-68
2022/09/23 03:33:39;;;;;;;3.75;3.33;;;;;;;10.93;79.63;99138.77;1628900;86;20915;-68
2022/09/23 03:39:02;;;;;;;3.37;3.08;;;;;;;10.91;79.61;99140.80;1606178;87;21026;-68
2022/09/23 03:41:40;;;;;;;3.67;3.42;;;;;;;10.91;79.62;99142.13;1611154;87;20994;-68
2022/09/23 03:44:08;;;;;;;2.90;2.70;;;;;;;10.93;79.67;99145.42;1646134;86;20909;-68
2022/09/23 03:46:34;;;;;;;3.33;3.02;;;;;;;10.94;79.55;99144.44;1626646;87;20930;-69
2022/09/23 03:49:08;;;;;;;4.37;2.42;;;;;;;10.96;79.54;99145.07;1639042;86;21305;-69
2022/09/23 03:51:35;;;;;;;3.10;2.80;;;;;;;10.98;79.50;99141.22;1666520;86;20946;-69
2022/09/23 03:54:01;;;;;;;2.67;2.47;;;;;;;11.01;79.42;99138.70;1627656;86;21594;-69
2022/09/23 03:56:28;;;;;;;3.08;2.87;;;;;;;10.98;79.40;99145.21;1664663;86;21473;-69
2022/09/23 03:58:55;;;;;;;3.37;3.12;;;;;;;10.98;79.39;99141.22;1666487;86;21006;-69
2022/09/23 04:01:22;;;;;;;2.65;2.45;;;;;;;10.97;79.32;99140.08;1632221;86;21889;-69
2022/09/23 04:03:48;;;;;;;2.77;2.50;;;;;;;10.95;79.28;99133.59;1666445;86;20867;-68
2022/09/23 04:06:16;;;;;;;7.17;2.40;;;;;;;10.95;79.33;99134.92;1665306;86;20959;-69
2022/09/23 04:08:44;;;;;;;3.85;3.12;;;;;;;10.94;79.29;99137.28;1629708;86;20985;-69
2022/09/23 04:11:10;;;;;;;2.95;2.67;;;;;;;10.96;79.23;99131.27;1625866;86;20925;-68
2022/09/23 04:13:36;;;;;;;2.70;2.50;;;;;;;10.97;79.32;99134.27;1626438;86;21278;-68
2022/09/23 04:16:03;;;;;;;3.08;2.77;;;;;;;11.01;79.40;99136.87;1637233;86;20999;-69
2022/09/23 04:18:30;;;;;;;3.75;3.35;;;;;;;11.03;79.34;99132.19;1625629;87;20948;-68
2022/09/23 04:20:58;;;;;;;4.83;4.42;;;;;;;11.04;79.29;99131.69;1626932;86;20939;-69
2022/09/23 04:23:25;;;;;;;3.45;3.12;;;;;;;11.06;79.18;99137.65;1624648;86;20997;-68
2022/09/23 04:25:52;;;;;;;3.50;3.20;;;;;;;11.06;79.18;99138.98;1624712;86;21347;-69
2022/09/23 04:28:20;;;;;;;4.22;3.55;;;;;;;11.07;79.26;99136.16;1625540;86;20925;-69
2022/09/23 04:30:47;;;;;;;3.47;3.17;;;;;;;11.09;79.24;99138.13;1602368;87;21557;-68
2022/09/23 04:33:14;;;;;;;3.30;3.00;;;;;;;11.10;79.19;99134.47;1635185;86;21602;-68
2022/09/23 04:35:44;;;;;;;3.55;3.25;;;;;;;11.12;79.15;99136.44;1627768;86;21069;-68
2022/09/23 04:38:11;;;;;;;2.85;2.65;;;;;;;11.13;79.23;99138.07;1639384;86;22021;-69
2022/09/23 04:40:38;;;;;;;3.42;3.20;;;;;;;11.14;79.27;99138.41;1630268;86;21470;-68
2022/09/23 04:43:04;;;;;;;3.60;3.30;;;;;;;11.20;79.37;99142.67;1611879;86;21057;-69
2022/09/23 04:45:31;;;;;;;3.20;3.00;;;;;;;11.24;79.42;99146.64;1620265;87;21070;-69
2022/09/23 04:47:58;;;;;;;4.70;3.20;;;;;;;11.29;79.29;99145.59;1634712;85;21044;-69
2022/09/23 04:50:25;;;;;;;3.20;3.00;;;;;;;11.31;79.22;99149.73;1645182;85;21231;-67
2022/09/23 04:52:52;;;;;;;3.52;3.22;;;;;;;11.35;79.16;99146.17;1625640;86;21076;-67
2022/09/23 04:55:19;;;;;;;3.80;3.25;;;;;;;11.35;79.07;99143.01;1620727;87;21044;-67
2022/09/23 04:57:45;;;;;;;3.52;3.22;;;;;;;11.38;79.14;99151.14;1622559;86;21089;-69
2022/09/23 05:00:18;;;;;;;3.42;3.12;;;;;;;11.39;79.02;99146.98;1620786;86;21036;-68
2022/09/23 05:02:45;;;;;;;4.17;3.30;;;;;;;11.39;78.92;99151.47;1622219;86;21190;-69
2022/09/23 05:05:12;;;;;;;3.22;3.02;;;;;;;11.39;78.83;99151.47;1619958;86;20968;-68
2022/09/23 05:07:39;;;;;;;3.67;3.37;;;;;;;11.38;78.64;99144.48;1623430;86;21080;-69
2022/09/23 05:10:07;;;;;;;4.35;3.52;;;;;;;11.41;78.50;99144.12;1620145;86;21132;-69
2022/09/23 05:12:34;;;;;;;3.77;3.47;;;;;;;11.42;78.54;99149.78;1620028;86;21019;-69
2022/09/23 05:15:01;;;;;;;3.72;3.35;;;;;;;11.43;78.57;99152.74;1620779;86;21280;-69
2022/09/23 05:17:30;;;;;;;3.47;3.17;;;;;;;11.45;78.51;99146.72;1624573;86;20874;-69
2022/09/23 05:19:58;;;;;;;4.15;3.75;;;;;;;11.46;78.47;99147.89;1623737;88;21625;-68
2022/09/23 05:22:27;;;;;;;3.65;3.35;;;;;;;11.48;78.54;99152.52;1626369;87;21066;-68
2022/09/23 05:24:54;;;;;;;4.03;3.42;;;;;;;11.52;78.42;99152.98;1615761;87;21016;-69
2022/09/23 05:27:20;;;;;;;3.62;3.33;;;;;;;11.51;78.21;99149.49;1641842;85;22162;-69
2022/09/23 05:29:48;;;;;;;3.37;2.83;;;;;;;11.50;78.05;99151.82;1630012;86;22152;-69
2022/09/23 05:32:14;;;;;;;3.27;3.05;;;;;;;11.47;77.99;99156.71;1627431;86;21066;-69
2022/09/23 05:34:41;;;;;;;3.20;2.83;;;;;;;11.48;78.07;99152.52;1620248;86;20981;-69
2022/09/23 05:37:08;;;;;;;4.20;2.85;;;;;;;11.51;78.03;99154.82;1625418;86;21549;-69
2022/09/23 05:39:35;;;;;;;3.08;2.70;;;;;;;11.56;78.00;99147.60;1617576;86;22070;-69
2022/09/23 05:42:02;;;;;;;3.08;2.75;;;;;;;11.63;77.91;99149.84;1609932;87;21660;-68
2022/09/23 05:44:29;;;;;;;3.10;2.90;;;;;;;11.70;77.88;99146.31;1605043;87;22401;-69
2022/09/23 05:46:56;;;;;;;2.85;2.65;;;;;;;11.78;77.78;99145.38;1609043;87;21032;-69
2022/09/23 05:49:23;;;;;;;4.22;3.65;;;;;;;11.87;77.61;99146.08;1605099;87;21033;-68
2022/09/23 05:51:50;;;;;;;4.30;4.00;;;;;;;11.95;77.50;99144.64;1604802;87;21367;-68
2022/09/23 05:54:16;;;;;;;3.72;3.30;;;;;;;12.02;77.26;99143.70;1604649;88;20929;-68
2022/09/23 05:56:44;;;;;;;4.75;3.65;;;;;;;12.11;77.15;99143.93;1606602;87;21062;-68
2022/09/23 05:59:11;;;;;;;3.62;3.33;;;;;;;12.24;77.12;99150.74;1598858;88;21039;-68
2022/09/23 06:01:38;;;;;;;3.85;3.25;;;;;;;12.32;76.84;99141.30;1616320;86;21561;-68
2022/09/23 06:04:06;;;;;;;3.17;2.98;;;;;;;12.39;76.45;99144.01;1612803;87;21269;-68
2022/09/23 06:06:39;;;;;;;3.12;2.92;;;;;;;12.43;76.09;99149.80;1634756;86;20991;-68
2022/09/23 06:09:12;;;;;;;3.12;2.90;;;;;;;12.48;75.68;99140.22;1619829;87;20927;-68
2022/09/23 06:11:40;;;;;;;3.77;3.40;;;;;;;12.53;75.54;99142.31;1620261;88;21028;-68
2022/09/23 06:14:08;;;;;;;4.80;3.80;;;;;;;12.59;75.34;99149.02;1621679;86;21097;-68
2022/09/23 06:16:35;;;;;;;4.47;3.65;;;;;;;12.62;75.17;99142.51;1613060;86;21249;-68
2022/09/23 06:19:04;;;;;;;8.88;4.15;;;;;;;12.66;75.07;99149.94;1646555;85;21010;-69
2022/09/23 06:21:32;;;;;;;5.25;4.78;;;;;;;12.68;74.82;99149.23;1617111;86;21732;-69
2022/09/23 06:23:59;;;;;;;5.30;4.55;;;;;;;12.72;74.46;99145.68;1605346;87;21581;-68
2022/09/23 06:26:27;;;;;;;4.50;4.10;;;;;;;12.73;74.11;99148.14;1604825;87;21032;-69
2022/09/23 06:28:53;;;;;;;4.35;3.95;;;;;;;12.76;73.91;99159.78;1600505;87;21285;-68
2022/09/23 06:31:20;;;;;;;3.85;3.52;;;;;;;12.79;73.58;99147.89;1597436;88;20951;-68
2022/09/23 06:33:48;;;;;;;3.72;3.42;;;;;;;12.80;73.35;99157.02;1605734;88;21025;-67
2022/09/23 06:36:15;;;;;;;2.90;2.70;;;;;;;12.81;73.21;99154.69;1595149;88;21544;-68
2022/09/23 06:38:47;;;;;;;3.00;2.62;;;;;;;12.88;73.01;99150.72;1593609;88;21595;-68
2022/09/23 06:41:13;;;;;;;2.80;2.60;;;;;;;12.97;72.93;99157.09;1609994;88;22024;-68
2022/09/23 06:43:40;;;;;;;5.45;2.85;;;;;;;13.06;72.66;99151.11;1596010;88;20929;-69
2022/09/23 06:46:09;;;;;;;3.10;2.77;;;;;;;13.13;72.25;99153.84;1598487;88;20888;-68
2022/09/23 06:48:35;;;;;;;2.98;2.67;;;;;;;13.20;72.10;99156.04;1598407;88;21013;-69
2022/09/23 06:51:06;;;;;;;2.90;2.60;;;;;;;13.27;72.07;99153.73;1593471;88;21079;-69
2022/09/23 06:53:33;;;;;;;4.75;3.00;;;;;;;13.36;71.99;99157.91;1601629;88;21875;-69
2022/09/23 06:56:07;;;;;;;4.37;3.12;;;;;;;13.50;71.78;99156.95;1607372;87;21053;-71
2022/09/23 06:58:35;;;;;;;3.45;3.15;;;;;;;13.66;71.28;99157.15;1595059;88;20988;-75
2022/09/23 07:01:06;;;;;;;4.12;3.17;;;;;;;13.90;70.96;99148.64;1597772;88;21037;-79
2022/09/23 07:03:33;;;;;;;4.00;3.15;;;;;;;14.24;70.61;99149.89;1603267;87;21561;-68
2022/09/23 07:06:00;;;;;;;6.85;3.72;;;;;;;14.70;70.23;99149.21;1594186;88;21949;-69
2022/09/23 07:08:28;;;;;;;7.35;3.80;;;;;;;15.12;69.08;99145.31;1598117;88;21484;-74
2022/09/23 07:10:58;;;;;;;3.62;3.27;;;;;;;15.46;68.03;99154.44;1593455;88;21042;-68
2022/09/23 07:13:24;;;;;;;2.83;2.62;;;;;;;15.69;66.35;99147.29;1593247;88;21601;-69
2022/09/23 07:15:52;;;;;;;2.55;2.35;;;;;;;15.77;64.91;99147.06;1594927;88;21582;-68
2022/09/23 07:18:22;;;;;;;2.05;1.95;;;;;;;15.79;64.08;99148.50;1596736;88;21180;-70
2022/09/23 07:20:49;;;;;;;4.70;2.75;;;;;;;15.80;63.32;99142.63;1593928;88;20993;-69
2022/09/23 07:23:16;;;;;;;4.90;2.85;;;;;;;15.83;62.67;99145.69;1593553;88;21033;-69
2022/09/23 07:25:45;;;;;;;3.37;2.60;;;;;;;15.85;62.34;99146.83;1603965;88;21549;-70
2022/09/23 07:28:12;;;;;;;3.12;2.50;;;;;;;15.85;62.02;99148.17;1606043;87;21060;-70
2022/09/23 07:30:39;;;;;;;2.92;2.50;;;;;;;15.83;61.69;99147.02;1598017;88;21300;-70
2022/09/23 07:33:06;;;;;;;3.15;2.72;;;;;;;15.85;61.35;99148.17;1593715;88;21019;-69
2022/09/23 07:35:33;;;;;;;2.52;2.33;;;;;;;15.91;61.32;99147.30;1598457;88;21120;-69
2022/09/23 07:38:00;;;;;;;2.50;2.30;;;;;;;16.01;60.82;99149.84;1593697;88;20989;-70
2022/09/23 07:40:26;;;;;;;5.33;2.47;;;;;;;16.08;60.60;99139.90;1594490;88;21062;-70
2022/09/23 07:42:54;;;;;;;3.12;2.58;;;;;;;16.14;60.21;99140.91;1595432;88;21253;-72
2022/09/23 07:45:21;;;;;;;3.22;2.92;;;;;;;16.12;60.04;99138.13;1602110;88;21028;-70
2022/09/23 07:47:48;;;;;;;2.95;2.47;;;;;;;16.08;59.89;99144.98;1595842;88;21084;-71
2022/09/23 07:50:15;;;;;;;4.37;3.00;;;;;;;16.05;59.80;99143.55;1593506;88;21538;-70
2022/09/23 07:52:42;;;;;;;4.37;2.58;;;;;;;16.10;59.71;99139.70;1595560;88;21069;-73
2022/09/23 07:55:09;;;;;;;2.60;2.40;;;;;;;16.11;59.50;99140.53;1597575;88;21285;-67
2022/09/23 07:57:35;;;;;;;3.52;2.80;;;;;;;16.08;59.42;99140.44;1599766;88;21064;-69
2022/09/23 08:00:03;;;;;;;3.70;3.10;;;;;;;16.02;59.16;99143.45;1602593;88;21066;-70
2022/09/23 08:02:32;;;;;;;3.00;2.70;;;;;;;15.97;59.22;99141.93;1604494;88;21092;-69
2022/09/23 08:04:58;;;;;;;5.20;2.72;;;;;;;15.93;59.24;99142.03;1602596;87;20929;-71
2022/09/23 08:07:25;;;;;;;3.05;2.67;;;;;;;15.89;59.23;99140.83;1603261;87;21178;-70
2022/09/23 08:09:51;;;;;;;2.60;2.40;;;;;;;15.83;59.32;99141.66;1593271;88;20985;-70
2022/09/23 08:12:18;;;;;;;2.58;2.37;;;;;;;15.82;59.39;99141.89;1598267;88;20938;-71
2022/09/23 08:14:44;;;;;;;4.42;2.62;;;;;;;15.76;59.21;99132.83;1603765;88;21023;-70
2022/09/23 08:21:33;;;;;;;4.08;2.65;;;;;;;15.73;59.55;99135.92;1595173;88;21174;-69
2022/09/23 08:24:01;;;;;;;3.37;2.50;;;;;;;15.81;59.88;99134.35;1603658;88;20967;-69
2022/09/23 08:26:27;;;;;;;3.00;2.52;;;;;;;15.92;59.81;99135.55;1593783;88;21499;-68
2022/09/23 08:28:55;;;;;;;4.47;2.47;;;;;;;15.95;59.62;99131.94;1592161;88;21547;-69
2022/09/23 08:31:22;;;;;;;2.80;2.60;;;;;;;15.97;59.59;99131.20;1632113;86;21034;-69
2022/09/23 08:33:55;;;;;;;2.87;2.52;;;;;;;16.02;59.45;99132.72;1666723;86;21270;-69
2022/09/23 08:36:22;;;;;;;3.00;2.80;;;;;;;16.01;59.21;99135.09;1665768;86;21034;-69
2022/09/23 08:38:49;;;;;;;2.75;2.55;;;;;;;15.98;59.18;99132.03;1627482;86;21013;-69
2022/09/23 08:41:36;;;;;;;4.65;2.92;;;;;;;15.98;59.30;99133.38;1666624;86;20962;-69
2022/09/23 08:44:08;;;;;;;8.43;2.58;;;;;;;15.95;58.87;99129.25;1627738;86;21062;-69
2022/09/23 08:46:38;;;;;;;7.08;3.17;;;;;;;15.87;58.76;99133.52;1656704;86;21078;-68
2022/09/23 08:49:06;;;;;;;4.35;3.00;;;;;;;15.80;59.20;99127.88;1666516;86;21027;-68
2022/09/23 08:51:47;;;;;;;3.05;2.80;;;;;;;15.81;59.55;99128.98;1627470;86;21002;-69
2022/09/23 08:54:15;;;;;;;3.08;2.83;;;;;;;15.80;59.23;99129.22;1666528;86;20998;-69
2022/09/23 08:56:47;;;;;;;4.40;2.33;;;;;;;15.83;59.03;99128.25;1627457;86;20967;-69
2022/09/23 08:59:41;;;;;;;2.85;2.55;;;;;;;15.87;59.12;99128.66;1666482;86;21272;-68
2022/09/23 09:02:16;;;;;;;3.15;2.85;;;;;;;15.98;59.18;99136.05;1629344;86;20996;-68
2022/09/23 09:04:50;;;;;;;2.55;2.30;;;;;;;16.09;59.19;99125.97;1664141;86;21560;-69
2022/09/23 09:07:28;;;;;;;3.58;2.30;;;;;;;16.21;58.93;99131.50;1627495;86;20975;-68
2022/09/23 09:10:23;;;;;;;2.60;2.15;;;;;;;16.27;58.36;99126.63;1666570;85;21018;-68
2022/09/23 09:13:03;;;;;;;3.65;2.30;;;;;;;16.30;57.96;99124.31;1652624;86;21584;-68
2022/09/23 09:15:30;;;;;;;3.45;1.72;;;;;;;16.35;57.66;99120.97;1628873;86;20867;-69
2022/09/23 09:18:18;;;;;;;3.75;2.08;;;;;;;16.40;57.26;99129.23;1666435;86;20970;-69
2022/09/23 09:21:08;;;;;;;2.55;2.25;;;;;;;16.45;57.20;99122.69;1627478;86;20999;-68
2022/09/23 09:23:54;;;;;;;2.60;2.10;;;;;;;16.55;56.88;99123.06;1666561;86;20982;-69
2022/09/23 09:26:26;;;;;;;2.25;1.92;;;;;;;16.65;56.76;99120.72;1627536;86;21182;-68
2022/09/23 09:29:19;;;;;;;2.00;1.90;;;;;;;16.77;56.34;99119.48;1666386;86;21075;-68
2022/09/23 09:31:47;;;;;;;2.50;1.70;;;;;;;16.81;55.91;99114.81;1627703;86;20959;-69
2022/09/23 09:34:38;;;;;;;2.33;2.10;;;;;;;16.88;55.65;99114.75;1666526;86;21531;-69
2022/09/23 09:37:26;;;;;;;5.83;1.95;;;;;;;16.95;55.51;99117.68;1627585;86;21548;-69
2022/09/23 09:39:52;;;;;;;4.10;2.10;;;;;;;17.07;55.39;99113.25;1658641;85;21114;-69
2022/09/23 09:42:24;;;;;;;4.65;1.98;;;;;;;17.15;55.04;99112.94;1627488;86;20911;-69
2022/09/23 09:45:02;;;;;;;2.12;1.95;;;;;;;17.17;54.97;99113.56;1640919;86;21073;-69
2022/09/23 09:48:02;;;;;;;2.33;2.12;;;;;;;17.17;54.53;99106.84;1603488;87;20985;-69
2022/09/23 09:50:50;;;;;;;2.15;2.00;;;;;;;17.20;53.87;99112.30;1619843;86;20950;-69
2022/09/23 09:53:25;;;;;;;5.87;2.00;;;;;;;17.21;54.05;99111.23;1648021;86;21392;-69
2022/09/23 09:56:08;;;;;;;3.55;2.50;;;;;;;17.22;54.38;99103.48;1627592;86;21037;-69
2022/09/23 09:58:51;;;;;;;3.12;1.77;;;;;;;17.24;54.49;99102.22;1666464;86;21792;-69
2022/09/23 10:01:25;;;;;;;2.00;1.80;;;;;;;17.23;53.87;99102.45;1636226;86;20890;-70
2022/09/23 10:03:59;;;;;;;2.92;1.90;;;;;;;17.03;53.88;99099.11;1596842;87;21170;-70
2022/09/23 10:06:29;;;;;;;1.70;1.60;;;;;;;16.80;54.76;99098.38;1665700;86;21290;-70
2022/09/23 10:09:16;;;;;;;2.08;1.98;;;;;;;16.55;55.89;99108.30;1666452;86;20998;-70
2022/09/23 10:11:42;;;;;;;2.05;1.95;;;;;;;16.34;56.67;99107.27;1627614;86;21071;-70
2022/09/23 10:14:18;;;;;;;2.60;2.40;;;;;;;16.15;57.25;99098.80;1638295;86;20974;-71
2022/09/23 10:16:47;;;;;;;3.08;1.80;;;;;;;16.08;58.24;99100.70;1633660;86;21031;-69
2022/09/23 10:19:28;;;;;;;1.82;1.40;;;;;;;15.96;58.89;99105.39;1666640;86;21261;-68
2022/09/23 10:22:01;;;;;;;3.17;1.75;;;;;;;15.87;59.14;99101.33;1627198;86;20979;-69
2022/09/23 10:24:31;;;;;;;3.60;2.20;;;;;;;15.76;58.79;99099.30;1654471;86;20965;-69
2022/09/23 10:27:06;;;;;;;4.47;2.02;;;;;;;15.74;59.57;99101.37;1627410;86;20975;-69
2022/09/23 10:29:38;;;;;;;3.47;1.65;;;;;;;15.72;60.11;99098.61;1665822;85;21107;-69
2022/09/23 10:32:36;;;;;;;2.80;1.55;;;;;;;15.76;60.14;99095.80;1608175;87;21830;-69
2022/09/23 10:35:15;;;;;;;5.62;3.25;;;;;;;15.78;59.77;99092.38;1652767;86;21006;-69
2022/09/23 10:37:53;;;;;;;10.35;9.25;;;;;;;15.85;59.68;99085.94;1626969;87;22000;-69
2022/09/23 10:46:44;;;;;;;12.00;11.10;;;;;;;16.04;58.65;99084.20;1642052;86;21824;-70
2022/09/23 10:49:57;;;;;;;13.45;12.37;;;;;;;16.10;58.26;99082.52;1650133;86;20907;-67
2022/09/23 10:52:50;;;;;;;11.83;10.88;;;;;;;16.17;57.86;99083.30;1657110;86;21010;-70
2022/09/23 10:55:28;;;;;;;11.70;10.72;;;;;;;16.27;57.42;99078.31;1656286;86;20915;-69
2022/09/23 10:58:18;;;;;;;7.20;6.62;;;;;;;16.32;57.34;99083.30;1653058;86;21010;-68
2022/09/23 11:01:06;;;;;;;2.25;2.05;;;;;;;16.40;56.46;99079.56;1643044;86;21176;-69
2022/09/23 11:04:02;;;;;;;1.92;1.02;;;;;;;16.40;54.94;99094.33;1626747;87;21046;-68
2022/09/23 11:06:59;;;;;;;0.80;0.80;;;;;;;16.23;55.02;99083.28;1657449;86;20907;-69
2022/09/23 11:09:46;;;;;;;0.70;0.70;;;;;;;15.89;55.12;99077.79;1650257;86;21023;-69
2022/09/23 11:12:49;;;;;;;0.78;0.70;;;;;;;15.56;55.76;99076.28;1610430;87;21528;-70
2022/09/23 11:15:41;;;;;;;0.90;0.90;;;;;;;15.20;56.39;99078.11;1652730;86;21948;-70
2022/09/23 11:19:03;;;;;;;2.08;0.90;;;;;;;14.93;57.53;99084.52;1656421;86;20970;-69
2022/09/23 11:21:55;;;;;;;5.70;5.20;;;;;;;14.78;58.49;99082.07;1626873;87;20903;-67
2022/09/23 11:25:01;;;;;;;3.65;3.45;;;;;;;14.66;59.78;99081.02;1657228;86;20954;-70
2022/09/23 11:27:55;;;;;;;1.80;1.70;;;;;;;14.51;60.22;99085.25;1657485;86;20879;-69
2022/09/23 11:30:22;;;;;;;1.90;1.50;;;;;;;14.34;60.37;99086.66;1604441;86;21192;-69
2022/09/23 11:33:19;;;;;;;1.15;1.12;;;;;;;14.15;60.71;99083.41;1566021;88;21084;-69
2022/09/23 11:35:54;;;;;;;;;;;;;;;14.03;60.91;99082.33;1633408;86;21576;-70
2022/09/23 11:38:26;;;;;;;1.25;0.90;;;;;;;13.85;60.81;99071.37;1618621;87;20088;-69
2022/09/23 11:40:57;;;;;;;1.07;0.75;;;;;;;13.77;61.42;99072.89;1617783;87;21112;-69
2022/09/23 11:43:30;;;;;;;1.50;0.80;;;;;;;13.69;61.75;99069.09;1618518;87;21302;-69
2022/09/23 11:46:04;;;;;;;1.20;0.85;;;;;;;13.63;62.12;99070.17;1630167;86;21068;-69
2022/09/23 11:48:37;;;;;;;0.80;0.80;;;;;;;13.61;62.15;99065.54;1606143;87;20939;-69
2022/09/23 11:51:09;;;;;;;1.00;0.90;;;;;;;13.61;62.29;99068.72;1625533;86;21022;-69
2022/09/23 11:53:49;;;;;;;2.65;2.45;;;;;;;13.67;62.72;99068.44;1617661;87;20971;-68
2022/09/23 11:56:25;;;;;;;6.22;5.83;;;;;;;13.83;63.03;99075.61;1630938;86;21111;-68
2022/09/23 11:59:21;;;;;;;9.40;8.60;;;;;;;14.03;63.38;99070.30;1618804;87;20960;-68
2022/09/23 12:02:14;;;;;;;7.90;7.25;;;;;;;14.22;63.90;99070.87;1627356;86;20959;-68
2022/09/23 12:04:44;;;;;;;2.70;2.50;;;;;;;14.41;63.40;99071.45;1618469;87;21051;-69
2022/09/23 12:07:18;;;;;;;2.22;1.90;;;;;;;14.49;62.58;99069.92;1618196;87;20975;-69
2022/09/23 12:10:03;;;;;;;1.50;1.40;;;;;;;14.49;62.27;99063.22;1618051;87;21353;-68
2022/09/23 12:12:38;;;;;;;3.00;1.73;;;;;;;14.49;62.79;99067.23;1626033;86;20884;-69
2022/09/23 12:15:38;;;;;;;1.42;1.32;;;;;;;14.44;62.61;99064.86;1619642;87;21088;-69
2022/09/23 12:18:38;;;;;;;1.90;0.93;;;;;;;14.36;62.52;99060.54;1623889;86;20979;-69
2022/09/23 12:21:41;;;;;;;1.42;0.90;;;;;;;14.25;61.35;99054.41;1619461;87;21086;-69